sensor_id;sensor_type;location;lat;lon;timestamp;temperature;humidity
20366;DHT22;10341;49.894;8.822;2023-03-30T00:02:15;15.70;99.90
20366;DHT22;10341;49.894;8.822;2023-03-30T00:07:36;15.60;99.90
20366;DHT22;10341;49.894;8.822;2023-03-30T00:12:56;15.80;99.90
20366;DHT22;10341;49.894;8.822;2023-03-30T00:18:16;16.70;99.90
20366;DHT22;10341;49.894;8.822;2023-03-30T00:23:37;16.30;99.90
20366;DHT22;10341;49.894;8.822;2023-03-30T00:28:57;16.30;99.90
20366;DHT22;10341;49.894;8.822;2023-03-30T00:34:16;16.30;99.90
20366;DHT22;10341;49.894;8.822;2023-03-30T00:39:36;16.30;99.90
20366;DHT22;10341;49.894;8.822;2023-03-30T00:50:42;16.40;99.90
20366;DHT22;10341;49.894;8.822;2023-03-30T00:56:03;16.30;99.90
20366;DHT22;10341;49.894;8.822;2023-03-30T01:01:26;16.20;99.90
20366;DHT22;10341;49.894;8.822;2023-03-30T01:06:47;16.00;99.90
20366;DHT22;10341;49.894;8.822;2023-03-30T01:12:08;15.90;99.90
20366;DHT22;10341;49.894;8.822;2023-03-30T01:17:30;15.80;99.90
20366;DHT22;10341;49.894;8.822;2023-03-30T01:23:12;15.80;99.90
20366;DHT22;10341;49.894;8.822;2023-03-30T01:28:47;15.70;99.90
20366;DHT22;10341;49.894;8.822;2023-03-30T01:34:18;15.60;99.90
20366;DHT22;10341;49.894;8.822;2023-03-30T01:40:15;15.40;99.90
20366;DHT22;10341;49.894;8.822;2023-03-30T01:46:07;15.30;99.90
20366;DHT22;10341;49.894;8.822;2023-03-30T01:51:34;14.90;99.90
20366;DHT22;10341;49.894;8.822;2023-03-30T01:57:08;14.50;99.90
20366;DHT22;10341;49.894;8.822;2023-03-30T02:02:30;14.30;99.90
20366;DHT22;10341;49.894;8.822;2023-03-30T02:08:00;14.10;99.90
20366;DHT22;10341;49.894;8.822;2023-03-30T02:13:22;14.00;99.90
20366;DHT22;10341;49.894;8.822;2023-03-30T02:18:45;13.90;99.90
20366;DHT22;10341;49.894;8.822;2023-03-30T02:24:06;13.80;99.90
20366;DHT22;10341;49.894;8.822;2023-03-30T02:29:27;13.70;99.90
20366;DHT22;10341;49.894;8.822;2023-03-30T02:46:05;13.80;99.90
20366;DHT22;10341;49.894;8.822;2023-03-30T02:51:41;14.00;99.90
20366;DHT22;10341;49.894;8.822;2023-03-30T03:02:43;14.80;99.90
20366;DHT22;10341;49.894;8.822;2023-03-30T03:08:21;15.10;99.90
20366;DHT22;10341;49.894;8.822;2023-03-30T03:13:43;16.00;99.90
20366;DHT22;10341;49.894;8.822;2023-03-30T03:19:03;15.60;99.90
20366;DHT22;10341;49.894;8.822;2023-03-30T03:24:23;16.80;99.90
20366;DHT22;10341;49.894;8.822;2023-03-30T03:30:02;16.00;99.90
20366;DHT22;10341;49.894;8.822;2023-03-30T03:35:28;16.10;99.90
20366;DHT22;10341;49.894;8.822;2023-03-30T03:40:49;16.20;99.90
20366;DHT22;10341;49.894;8.822;2023-03-30T03:46:09;16.20;99.90
20366;DHT22;10341;49.894;8.822;2023-03-30T03:51:29;15.70;99.90
20366;DHT22;10341;49.894;8.822;2023-03-30T03:56:49;15.40;99.90
20366;DHT22;10341;49.894;8.822;2023-03-30T04:02:10;15.20;99.90
20366;DHT22;10341;49.894;8.822;2023-03-30T04:07:29;15.00;99.90
20366;DHT22;10341;49.894;8.822;2023-03-30T04:12:49;15.00;99.90
20366;DHT22;10341;49.894;8.822;2023-03-30T04:18:32;14.90;99.90
20366;DHT22;10341;49.894;8.822;2023-03-30T04:24:05;14.70;99.90
20366;DHT22;10341;49.894;8.822;2023-03-30T04:29:44;14.60;99.90
20366;DHT22;10341;49.894;8.822;2023-03-30T04:35:23;14.30;99.90
20366;DHT22;10341;49.894;8.822;2023-03-30T04:41:04;14.20;99.90
20366;DHT22;10341;49.894;8.822;2023-03-30T04:46:43;13.90;99.90
20366;DHT22;10341;49.894;8.822;2023-03-30T04:52:38;13.70;99.90
20366;DHT22;10341;49.894;8.822;2023-03-30T04:58:18;13.50;99.90
20366;DHT22;10341;49.894;8.822;2023-03-30T05:03:56;13.30;99.90
20366;DHT22;10341;49.894;8.822;2023-03-30T05:09:31;13.20;99.90
20366;DHT22;10341;49.894;8.822;2023-03-30T05:15:10;13.30;99.90
20366;DHT22;10341;49.894;8.822;2023-03-30T05:20:48;13.20;99.90
20366;DHT22;10341;49.894;8.822;2023-03-30T05:26:28;13.20;99.90
20366;DHT22;10341;49.894;8.822;2023-03-30T05:31:56;13.00;99.90
20366;DHT22;10341;49.894;8.822;2023-03-30T05:37:19;12.90;99.90
20366;DHT22;10341;49.894;8.822;2023-03-30T05:42:58;12.80;99.90
20366;DHT22;10341;49.894;8.822;2023-03-30T05:48:35;12.80;99.90
20366;DHT22;10341;49.894;8.822;2023-03-30T05:54:20;12.70;99.90
20366;DHT22;10341;49.894;8.822;2023-03-30T06:00:00;12.70;99.90
20366;DHT22;10341;49.894;8.822;2023-03-30T06:05:31;12.80;99.90
20366;DHT22;10341;49.894;8.822;2023-03-30T06:10:53;12.90;99.90
20366;DHT22;10341;49.894;8.822;2023-03-30T06:16:14;12.90;99.90
20366;DHT22;10341;49.894;8.822;2023-03-30T06:21:34;12.90;99.90
20366;DHT22;10341;49.894;8.822;2023-03-30T06:27:13;12.90;99.90
20366;DHT22;10341;49.894;8.822;2023-03-30T06:32:33;12.80;99.90
20366;DHT22;10341;49.894;8.822;2023-03-30T06:37:52;12.80;99.90
20366;DHT22;10341;49.894;8.822;2023-03-30T06:43:18;12.70;99.90
20366;DHT22;10341;49.894;8.822;2023-03-30T06:48:46;12.70;99.90
20366;DHT22;10341;49.894;8.822;2023-03-30T06:54:24;12.60;99.90
20366;DHT22;10341;49.894;8.822;2023-03-30T06:59:52;12.60;99.90
20366;DHT22;10341;49.894;8.822;2023-03-30T07:05:14;12.60;99.90
20366;DHT22;10341;49.894;8.822;2023-03-30T07:10:49;12.60;99.90
20366;DHT22;10341;49.894;8.822;2023-03-30T07:16:11;12.60;99.90
20366;DHT22;10341;49.894;8.822;2023-03-30T07:21:31;12.40;99.90
20366;DHT22;10341;49.894;8.822;2023-03-30T07:26:51;12.40;99.90
20366;DHT22;10341;49.894;8.822;2023-03-30T07:32:11;12.40;99.90
20366;DHT22;10341;49.894;8.822;2023-03-30T07:37:31;12.40;99.90
20366;DHT22;10341;49.894;8.822;2023-03-30T07:42:50;12.50;99.90
20366;DHT22;10341;49.894;8.822;2023-03-30T07:48:11;12.50;99.90
20366;DHT22;10341;49.894;8.822;2023-03-30T07:53:30;12.50;99.90
20366;DHT22;10341;49.894;8.822;2023-03-30T07:58:53;12.50;99.90
20366;DHT22;10341;49.894;8.822;2023-03-30T08:04:16;12.60;99.90
20366;DHT22;10341;49.894;8.822;2023-03-30T08:09:36;12.70;99.90
20366;DHT22;10341;49.894;8.822;2023-03-30T08:14:56;12.70;99.90
20366;DHT22;10341;49.894;8.822;2023-03-30T08:20:16;12.80;99.90
20366;DHT22;10341;49.894;8.822;2023-03-30T08:25:36;13.00;99.90
20366;DHT22;10341;49.894;8.822;2023-03-30T08:31:01;13.20;99.90
20366;DHT22;10341;49.894;8.822;2023-03-30T08:36:20;13.50;99.90
20366;DHT22;10341;49.894;8.822;2023-03-30T08:42:06;13.70;99.90
20366;DHT22;10341;49.894;8.822;2023-03-30T08:47:37;14.00;99.90
20366;DHT22;10341;49.894;8.822;2023-03-30T08:52:57;14.50;99.90
20366;DHT22;10341;49.894;8.822;2023-03-30T09:09:41;15.40;99.90
20366;DHT22;10341;49.894;8.822;2023-03-30T09:15:28;15.60;99.90
20366;DHT22;10341;49.894;8.822;2023-03-30T09:20:50;15.60;99.90
20366;DHT22;10341;49.894;8.822;2023-03-30T09:26:28;15.00;99.90
20366;DHT22;10341;49.894;8.822;2023-03-30T09:32:03;15.20;99.90
20366;DHT22;10341;49.894;8.822;2023-03-30T09:37:28;15.40;99.90
20366;DHT22;10341;49.894;8.822;2023-03-30T09:42:57;15.20;99.90
20366;DHT22;10341;49.894;8.822;2023-03-30T09:48:19;15.30;99.90
20366;DHT22;10341;49.894;8.822;2023-03-30T09:53:41;15.30;99.90
20366;DHT22;10341;49.894;8.822;2023-03-30T09:59:28;15.20;99.90
20366;DHT22;10341;49.894;8.822;2023-03-30T10:15:40;15.10;99.90
20366;DHT22;10341;49.894;8.822;2023-03-30T10:26:31;15.50;99.90
20366;DHT22;10341;49.894;8.822;2023-03-30T10:32:26;15.50;99.90
20366;DHT22;10341;49.894;8.822;2023-03-30T10:37:53;15.60;99.90
20366;DHT22;10341;49.894;8.822;2023-03-30T10:43:20;16.30;99.90
20366;DHT22;10341;49.894;8.822;2023-03-30T10:54:32;16.40;99.90
20366;DHT22;10341;49.894;8.822;2023-03-30T11:05:24;16.40;99.90
20366;DHT22;10341;49.894;8.822;2023-03-30T11:10:51;16.30;99.90
20366;DHT22;10341;49.894;8.822;2023-03-30T11:16:23;16.40;99.90
20366;DHT22;10341;49.894;8.822;2023-03-30T11:27:51;17.10;99.90
20366;DHT22;10341;49.894;8.822;2023-03-30T11:33:32;17.70;99.90
20366;DHT22;10341;49.894;8.822;2023-03-30T11:38:59;17.40;99.90
20366;DHT22;10341;49.894;8.822;2023-03-30T11:44:21;17.20;99.90
20366;DHT22;10341;49.894;8.822;2023-03-30T12:00:48;21.50;99.90
20366;DHT22;10341;49.894;8.822;2023-03-30T12:06:29;22.20;99.90
20366;DHT22;10341;49.894;8.822;2023-03-30T12:12:07;22.40;99.60
20366;DHT22;10341;49.894;8.822;2023-03-30T12:17:40;20.30;99.90
20366;DHT22;10341;49.894;8.822;2023-03-30T12:34:21;22.00;99.30
20366;DHT22;10341;49.894;8.822;2023-03-30T12:39:54;21.60;99.90
20366;DHT22;10341;49.894;8.822;2023-03-30T12:45:27;22.00;98.40
20366;DHT22;10341;49.894;8.822;2023-03-30T13:02:59;23.40;95.70
20366;DHT22;10341;49.894;8.822;2023-03-30T13:08:35;24.50;94.00
20366;DHT22;10341;49.894;8.822;2023-03-30T13:13:59;23.70;92.60
20366;DHT22;10341;49.894;8.822;2023-03-30T13:30:16;20.60;95.50
20366;DHT22;10341;49.894;8.822;2023-03-30T13:46:58;15.80;99.90
20366;DHT22;10341;49.894;8.822;2023-03-30T13:52:29;15.60;99.90
20366;DHT22;10341;49.894;8.822;2023-03-30T13:57:54;16.80;99.90
20366;DHT22;10341;49.894;8.822;2023-03-30T14:03:37;20.10;99.90
20366;DHT22;10341;49.894;8.822;2023-03-30T14:09:10;22.00;99.90
20366;DHT22;10341;49.894;8.822;2023-03-30T14:14:35;21.10;99.90
20366;DHT22;10341;49.894;8.822;2023-03-30T14:25:39;18.20;99.90
20366;DHT22;10341;49.894;8.822;2023-03-30T14:31:02;17.80;99.90
20366;DHT22;10341;49.894;8.822;2023-03-30T14:36:22;18.20;99.90
20366;DHT22;10341;49.894;8.822;2023-03-30T14:41:42;18.10;99.90
20366;DHT22;10341;49.894;8.822;2023-03-30T14:47:01;17.20;99.90
20366;DHT22;10341;49.894;8.822;2023-03-30T14:52:26;16.50;99.90
20366;DHT22;10341;49.894;8.822;2023-03-30T14:57:49;15.90;99.90
20366;DHT22;10341;49.894;8.822;2023-03-30T15:03:09;15.80;99.90
20366;DHT22;10341;49.894;8.822;2023-03-30T15:08:36;16.50;99.90
20366;DHT22;10341;49.894;8.822;2023-03-30T15:14:01;18.50;99.90
20366;DHT22;10341;49.894;8.822;2023-03-30T15:19:32;20.30;99.90
20366;DHT22;10341;49.894;8.822;2023-03-30T15:24:53;18.70;99.90
20366;DHT22;10341;49.894;8.822;2023-03-30T15:30:37;17.40;99.90
20366;DHT22;10341;49.894;8.822;2023-03-30T15:36:18;16.70;99.90
20366;DHT22;10341;49.894;8.822;2023-03-30T15:41:42;16.20;99.90
20366;DHT22;10341;49.894;8.822;2023-03-30T15:47:03;16.00;99.90
20366;DHT22;10341;49.894;8.822;2023-03-30T15:52:35;16.10;99.90
20366;DHT22;10341;49.894;8.822;2023-03-30T15:57:55;15.80;99.90
20366;DHT22;10341;49.894;8.822;2023-03-30T16:03:30;15.70;99.90
20366;DHT22;10341;49.894;8.822;2023-03-30T16:08:50;15.40;99.90
20366;DHT22;10341;49.894;8.822;2023-03-30T16:14:12;15.00;99.90
20366;DHT22;10341;49.894;8.822;2023-03-30T16:19:32;14.60;99.90
20366;DHT22;10341;49.894;8.822;2023-03-30T16:24:51;14.00;99.90
20366;DHT22;10341;49.894;8.822;2023-03-30T16:30:34;13.60;99.90
20366;DHT22;10341;49.894;8.822;2023-03-30T16:35:55;13.20;99.90
20366;DHT22;10341;49.894;8.822;2023-03-30T16:41:18;12.90;99.90
20366;DHT22;10341;49.894;8.822;2023-03-30T16:46:37;13.10;99.90
20366;DHT22;10341;49.894;8.822;2023-03-30T16:51:57;14.50;99.90
20366;DHT22;10341;49.894;8.822;2023-03-30T16:57:16;15.80;99.90
20366;DHT22;10341;49.894;8.822;2023-03-30T17:02:36;16.50;99.90
20366;DHT22;10341;49.894;8.822;2023-03-30T17:07:55;16.50;99.90
20366;DHT22;10341;49.894;8.822;2023-03-30T17:13:15;16.00;99.90
20366;DHT22;10341;49.894;8.822;2023-03-30T17:18:34;15.20;99.90
20366;DHT22;10341;49.894;8.822;2023-03-30T17:23:54;14.40;99.90
20366;DHT22;10341;49.894;8.822;2023-03-30T17:29:14;13.80;99.90
20366;DHT22;10341;49.894;8.822;2023-03-30T17:34:33;13.40;99.90
20366;DHT22;10341;49.894;8.822;2023-03-30T17:39:53;13.00;99.90
20366;DHT22;10341;49.894;8.822;2023-03-30T17:45:13;12.70;99.90
20366;DHT22;10341;49.894;8.822;2023-03-30T17:50:36;12.50;99.90
20366;DHT22;10341;49.894;8.822;2023-03-30T17:55:57;12.30;99.90
20366;DHT22;10341;49.894;8.822;2023-03-30T18:01:17;12.20;99.90
20366;DHT22;10341;49.894;8.822;2023-03-30T18:06:36;12.30;99.90
20366;DHT22;10341;49.894;8.822;2023-03-30T18:11:56;12.20;99.90
20366;DHT22;10341;49.894;8.822;2023-03-30T18:17:16;12.20;99.90
20366;DHT22;10341;49.894;8.822;2023-03-30T18:22:35;12.10;99.90
20366;DHT22;10341;49.894;8.822;2023-03-30T18:27:55;12.10;99.90
20366;DHT22;10341;49.894;8.822;2023-03-30T18:33:14;12.00;99.90
20366;DHT22;10341;49.894;8.822;2023-03-30T18:38:34;11.80;99.90
20366;DHT22;10341;49.894;8.822;2023-03-30T18:43:53;11.80;99.90
20366;DHT22;10341;49.894;8.822;2023-03-30T18:49:14;11.80;99.90
20366;DHT22;10341;49.894;8.822;2023-03-30T18:54:35;11.80;99.90
20366;DHT22;10341;49.894;8.822;2023-03-30T18:59:58;11.90;99.90
20366;DHT22;10341;49.894;8.822;2023-03-30T19:05:21;12.00;99.90
20366;DHT22;10341;49.894;8.822;2023-03-30T19:10:42;12.10;99.90
20366;DHT22;10341;49.894;8.822;2023-03-30T19:16:02;12.30;99.90
20366;DHT22;10341;49.894;8.822;2023-03-30T19:21:24;12.40;99.90
20366;DHT22;10341;49.894;8.822;2023-03-30T19:26:43;12.40;99.90
20366;DHT22;10341;49.894;8.822;2023-03-30T19:32:02;12.40;99.90
20366;DHT22;10341;49.894;8.822;2023-03-30T19:37:21;12.40;99.90
20366;DHT22;10341;49.894;8.822;2023-03-30T19:42:45;12.30;99.90
20366;DHT22;10341;49.894;8.822;2023-03-30T19:48:04;12.30;99.90
20366;DHT22;10341;49.894;8.822;2023-03-30T19:53:24;12.20;99.90
20366;DHT22;10341;49.894;8.822;2023-03-30T19:58:44;12.20;99.90
20366;DHT22;10341;49.894;8.822;2023-03-30T20:04:04;12.10;99.90
20366;DHT22;10341;49.894;8.822;2023-03-30T20:09:23;12.00;99.90
20366;DHT22;10341;49.894;8.822;2023-03-30T20:14:43;12.00;99.90
20366;DHT22;10341;49.894;8.822;2023-03-30T20:20:05;11.90;99.90
20366;DHT22;10341;49.894;8.822;2023-03-30T20:25:25;11.80;99.90
20366;DHT22;10341;49.894;8.822;2023-03-30T20:30:44;11.90;99.90
20366;DHT22;10341;49.894;8.822;2023-03-30T20:36:05;11.90;99.90
20366;DHT22;10341;49.894;8.822;2023-03-30T20:41:25;12.00;99.90
20366;DHT22;10341;49.894;8.822;2023-03-30T20:46:48;11.90;99.90
20366;DHT22;10341;49.894;8.822;2023-03-30T20:52:15;11.90;99.90
20366;DHT22;10341;49.894;8.822;2023-03-30T20:57:35;12.00;99.90
20366;DHT22;10341;49.894;8.822;2023-03-30T21:02:54;12.00;99.90
20366;DHT22;10341;49.894;8.822;2023-03-30T21:08:14;12.00;99.90
20366;DHT22;10341;49.894;8.822;2023-03-30T21:13:35;12.00;99.90
20366;DHT22;10341;49.894;8.822;2023-03-30T21:18:55;11.90;99.90
20366;DHT22;10341;49.894;8.822;2023-03-30T21:24:14;11.70;99.90
20366;DHT22;10341;49.894;8.822;2023-03-30T21:29:36;11.50;99.90
20366;DHT22;10341;49.894;8.822;2023-03-30T21:34:55;11.40;99.90
20366;DHT22;10341;49.894;8.822;2023-03-30T21:40:15;11.40;99.90
20366;DHT22;10341;49.894;8.822;2023-03-30T21:45:34;11.40;99.90
20366;DHT22;10341;49.894;8.822;2023-03-30T21:51:18;11.40;99.90
20366;DHT22;10341;49.894;8.822;2023-03-30T21:56:37;11.40;99.90
20366;DHT22;10341;49.894;8.822;2023-03-30T22:01:56;11.40;99.90
20366;DHT22;10341;49.894;8.822;2023-03-30T22:07:16;11.40;99.90
20366;DHT22;10341;49.894;8.822;2023-03-30T22:12:35;11.40;99.90
20366;DHT22;10341;49.894;8.822;2023-03-30T22:17:55;11.40;99.90
20366;DHT22;10341;49.894;8.822;2023-03-30T22:23:14;11.20;99.90
20366;DHT22;10341;49.894;8.822;2023-03-30T22:28:34;11.20;99.90
20366;DHT22;10341;49.894;8.822;2023-03-30T22:33:54;11.20;99.90
20366;DHT22;10341;49.894;8.822;2023-03-30T22:39:14;11.20;99.90
20366;DHT22;10341;49.894;8.822;2023-03-30T22:44:34;11.10;99.90
20366;DHT22;10341;49.894;8.822;2023-03-30T22:49:54;11.20;99.90
20366;DHT22;10341;49.894;8.822;2023-03-30T22:55:14;11.30;99.90
20366;DHT22;10341;49.894;8.822;2023-03-30T23:00:34;11.50;99.90
20366;DHT22;10341;49.894;8.822;2023-03-30T23:05:53;11.50;99.90
20366;DHT22;10341;49.894;8.822;2023-03-30T23:11:13;11.50;99.90
20366;DHT22;10341;49.894;8.822;2023-03-30T23:16:33;11.50;99.90
20366;DHT22;10341;49.894;8.822;2023-03-30T23:21:53;11.40;99.90
20366;DHT22;10341;49.894;8.822;2023-03-30T23:27:13;11.30;99.90
20366;DHT22;10341;49.894;8.822;2023-03-30T23:32:33;11.20;99.90
20366;DHT22;10341;49.894;8.822;2023-03-30T23:37:53;11.10;99.90
20366;DHT22;10341;49.894;8.822;2023-03-30T23:43:12;11.00;99.90
20366;DHT22;10341;49.894;8.822;2023-03-30T23:48:32;11.00;99.90
20366;DHT22;10341;49.894;8.822;2023-03-30T23:53:51;10.90;99.90
20366;DHT22;10341;49.894;8.822;2023-03-30T23:59:13;10.80;99.90
